sensor_id;sensor_type;location;lat;lon;timestamp;P1;durP1;ratioP1;P2;durP2;ratioP2
60919;SDS011;59039;52.108;19.942;2022-07-10T00:01:08;6.00;;;3.40;;
60919;SDS011;59039;52.108;19.942;2022-07-10T00:03:33;5.10;;;3.10;;
60919;SDS011;59039;52.108;19.942;2022-07-10T00:06:19;4.60;;;3.30;;
60919;SDS011;59039;52.108;19.942;2022-07-10T00:11:32;5.10;;;3.30;;
60919;SDS011;59039;52.108;19.942;2022-07-10T00:13:58;7.30;;;4.40;;
60919;SDS011;59039;52.108;19.942;2022-07-10T00:16:45;5.80;;;3.70;;
60919;SDS011;59039;52.108;19.942;2022-07-10T00:19:09;5.70;;;3.80;;
60919;SDS011;59039;52.108;19.942;2022-07-10T00:21:37;9.10;;;4.50;;
60919;SDS011;59039;52.108;19.942;2022-07-10T00:24:06;6.80;;;3.80;;
60919;SDS011;59039;52.108;19.942;2022-07-10T00:29:35;7.50;;;4.10;;
60919;SDS011;59039;52.108;19.942;2022-07-10T00:35:26;5.60;;;3.80;;
60919;SDS011;59039;52.108;19.942;2022-07-10T00:40:36;5.80;;;3.50;;
60919;SDS011;59039;52.108;19.942;2022-07-10T00:43:24;5.50;;;3.50;;
60919;SDS011;59039;52.108;19.942;2022-07-10T00:48:56;5.10;;;3.20;;
60919;SDS011;59039;52.108;19.942;2022-07-10T00:51:25;5.50;;;3.60;;
60919;SDS011;59039;52.108;19.942;2022-07-10T00:53:52;5.60;;;3.60;;
60919;SDS011;59039;52.108;19.942;2022-07-10T00:56:19;4.70;;;3.40;;
60919;SDS011;59039;52.108;19.942;2022-07-10T01:01:52;5.00;;;3.10;;
60919;SDS011;59039;52.108;19.942;2022-07-10T01:07:43;5.30;;;3.40;;
60919;SDS011;59039;52.108;19.942;2022-07-10T01:10:08;4.60;;;3.40;;
60919;SDS011;59039;52.108;19.942;2022-07-10T01:12:44;7.20;;;3.60;;
60919;SDS011;59039;52.108;19.942;2022-07-10T01:15:20;6.00;;;3.90;;
60919;SDS011;59039;52.108;19.942;2022-07-10T01:17:45;6.70;;;3.80;;
60919;SDS011;59039;52.108;19.942;2022-07-10T01:20:13;6.30;;;3.70;;
60919;SDS011;59039;52.108;19.942;2022-07-10T01:22:59;9.50;;;3.90;;
60919;SDS011;59039;52.108;19.942;2022-07-10T01:25:36;8.40;;;4.00;;
60919;SDS011;59039;52.108;19.942;2022-07-10T01:28:01;5.60;;;3.30;;
60919;SDS011;59039;52.108;19.942;2022-07-10T01:30:30;8.20;;;4.20;;
60919;SDS011;59039;52.108;19.942;2022-07-10T01:32:58;9.50;;;4.20;;
60919;SDS011;59039;52.108;19.942;2022-07-10T01:35:32;5.90;;;3.30;;
60919;SDS011;59039;52.108;19.942;2022-07-10T01:38:18;6.60;;;4.00;;
60919;SDS011;59039;52.108;19.942;2022-07-10T01:40:45;8.10;;;4.20;;
60919;SDS011;59039;52.108;19.942;2022-07-10T01:43:19;6.90;;;3.90;;
60919;SDS011;59039;52.108;19.942;2022-07-10T01:45:45;6.50;;;3.60;;
60919;SDS011;59039;52.108;19.942;2022-07-10T01:48:19;5.10;;;3.70;;
60919;SDS011;59039;52.108;19.942;2022-07-10T01:50:47;5.60;;;3.90;;
60919;SDS011;59039;52.108;19.942;2022-07-10T01:53:12;5.90;;;4.10;;
60919;SDS011;59039;52.108;19.942;2022-07-10T01:55:40;8.30;;;4.00;;
60919;SDS011;59039;52.108;19.942;2022-07-10T01:58:18;6.40;;;3.70;;
60919;SDS011;59039;52.108;19.942;2022-07-10T02:03:29;6.80;;;3.80;;
60919;SDS011;59039;52.108;19.942;2022-07-10T02:06:04;11.40;;;4.30;;
60919;SDS011;59039;52.108;19.942;2022-07-10T02:08:29;9.90;;;4.70;;
60919;SDS011;59039;52.108;19.942;2022-07-10T02:10:58;5.00;;;3.70;;
60919;SDS011;59039;52.108;19.942;2022-07-10T02:13:23;6.40;;;4.00;;
60919;SDS011;59039;52.108;19.942;2022-07-10T02:15:49;5.30;;;3.70;;
60919;SDS011;59039;52.108;19.942;2022-07-10T02:21:21;5.40;;;3.80;;
60919;SDS011;59039;52.108;19.942;2022-07-10T02:23:58;6.10;;;3.70;;
60919;SDS011;59039;52.108;19.942;2022-07-10T02:26:26;6.30;;;3.70;;
60919;SDS011;59039;52.108;19.942;2022-07-10T02:28:54;9.70;;;4.00;;
60919;SDS011;59039;52.108;19.942;2022-07-10T02:37:11;7.50;;;4.10;;
60919;SDS011;59039;52.108;19.942;2022-07-10T02:39:39;8.10;;;3.60;;
60919;SDS011;59039;52.108;19.942;2022-07-10T02:42:46;5.70;;;4.00;;
60919;SDS011;59039;52.108;19.942;2022-07-10T02:45:10;10.90;;;4.20;;
60919;SDS011;59039;52.108;19.942;2022-07-10T02:47:56;6.60;;;3.80;;
60919;SDS011;59039;52.108;19.942;2022-07-10T02:53:30;8.20;;;4.40;;
60919;SDS011;59039;52.108;19.942;2022-07-10T02:56:18;9.40;;;4.20;;
60919;SDS011;59039;52.108;19.942;2022-07-10T03:04:45;11.30;;;4.70;;
60919;SDS011;59039;52.108;19.942;2022-07-10T03:07:51;8.80;;;4.90;;
60919;SDS011;59039;52.108;19.942;2022-07-10T03:13:31;5.70;;;3.90;;
60919;SDS011;59039;52.108;19.942;2022-07-10T03:16:16;10.30;;;4.20;;
60919;SDS011;59039;52.108;19.942;2022-07-10T03:18:52;8.90;;;4.70;;
60919;SDS011;59039;52.108;19.942;2022-07-10T03:21:58;10.60;;;4.20;;
60919;SDS011;59039;52.108;19.942;2022-07-10T03:24:44;10.40;;;4.20;;
60919;SDS011;59039;52.108;19.942;2022-07-10T03:27:08;8.20;;;4.20;;
60919;SDS011;59039;52.108;19.942;2022-07-10T03:29:42;7.80;;;4.40;;
60919;SDS011;59039;52.108;19.942;2022-07-10T03:32:28;11.00;;;4.40;;
60919;SDS011;59039;52.108;19.942;2022-07-10T03:35:05;7.40;;;4.30;;
60919;SDS011;59039;52.108;19.942;2022-07-10T03:43:52;8.60;;;4.30;;
60919;SDS011;59039;52.108;19.942;2022-07-10T03:52:11;9.10;;;4.30;;
60919;SDS011;59039;52.108;19.942;2022-07-10T03:54:36;9.50;;;4.00;;
60919;SDS011;59039;52.108;19.942;2022-07-10T03:57:21;7.70;;;4.00;;
60919;SDS011;59039;52.108;19.942;2022-07-10T03:59:47;12.30;;;4.00;;
60919;SDS011;59039;52.108;19.942;2022-07-10T04:07:53;7.10;;;3.80;;
60919;SDS011;59039;52.108;19.942;2022-07-10T04:13:35;14.50;;;4.00;;
60919;SDS011;59039;52.108;19.942;2022-07-10T04:16:00;7.30;;;3.80;;
60919;SDS011;59039;52.108;19.942;2022-07-10T04:21:10;8.00;;;3.60;;
60919;SDS011;59039;52.108;19.942;2022-07-10T04:23:56;10.20;;;3.70;;
60919;SDS011;59039;52.108;19.942;2022-07-10T04:27:02;9.90;;;3.00;;
60919;SDS011;59039;52.108;19.942;2022-07-10T04:29:27;6.90;;;3.70;;
60919;SDS011;59039;52.108;19.942;2022-07-10T04:31:52;9.30;;;3.90;;
60919;SDS011;59039;52.108;19.942;2022-07-10T04:34:47;8.80;;;3.60;;
60919;SDS011;59039;52.108;19.942;2022-07-10T04:37:15;10.10;;;4.10;;
60919;SDS011;59039;52.108;19.942;2022-07-10T04:40:01;7.10;;;3.50;;
60919;SDS011;59039;52.108;19.942;2022-07-10T04:42:32;10.50;;;4.30;;
60919;SDS011;59039;52.108;19.942;2022-07-10T04:45:00;19.80;;;4.10;;
60919;SDS011;59039;52.108;19.942;2022-07-10T04:47:25;7.70;;;4.00;;
60919;SDS011;59039;52.108;19.942;2022-07-10T04:49:59;7.80;;;3.80;;
60919;SDS011;59039;52.108;19.942;2022-07-10T04:52:35;6.70;;;4.30;;
60919;SDS011;59039;52.108;19.942;2022-07-10T04:55:18;10.30;;;4.50;;
60919;SDS011;59039;52.108;19.942;2022-07-10T04:58:04;7.90;;;4.20;;
60919;SDS011;59039;52.108;19.942;2022-07-10T05:00:49;7.10;;;4.60;;
60919;SDS011;59039;52.108;19.942;2022-07-10T05:03:23;7.90;;;4.20;;
60919;SDS011;59039;52.108;19.942;2022-07-10T05:06:05;7.30;;;4.30;;
60919;SDS011;59039;52.108;19.942;2022-07-10T05:08:45;9.70;;;5.20;;
60919;SDS011;59039;52.108;19.942;2022-07-10T05:11:14;8.10;;;4.20;;
60919;SDS011;59039;52.108;19.942;2022-07-10T05:13:42;8.20;;;4.40;;
60919;SDS011;59039;52.108;19.942;2022-07-10T05:16:10;7.20;;;4.00;;
60919;SDS011;59039;52.108;19.942;2022-07-10T05:18:56;8.30;;;4.10;;
60919;SDS011;59039;52.108;19.942;2022-07-10T05:24:23;5.90;;;3.80;;
60919;SDS011;59039;52.108;19.942;2022-07-10T05:26:58;8.30;;;4.00;;
60919;SDS011;59039;52.108;19.942;2022-07-10T05:29:23;11.20;;;5.00;;
60919;SDS011;59039;52.108;19.942;2022-07-10T05:32:00;8.30;;;4.20;;
60919;SDS011;59039;52.108;19.942;2022-07-10T05:34:56;6.90;;;4.50;;
60919;SDS011;59039;52.108;19.942;2022-07-10T05:43:28;11.90;;;4.30;;
60919;SDS011;59039;52.108;19.942;2022-07-10T05:46:15;9.30;;;3.90;;
60919;SDS011;59039;52.108;19.942;2022-07-10T05:51:54;8.40;;;4.10;;
60919;SDS011;59039;52.108;19.942;2022-07-10T05:54:22;7.40;;;4.40;;
60919;SDS011;59039;52.108;19.942;2022-07-10T05:56:50;5.20;;;3.60;;
60919;SDS011;59039;52.108;19.942;2022-07-10T05:59:15;10.80;;;4.80;;
60919;SDS011;59039;52.108;19.942;2022-07-10T06:01:43;13.20;;;4.10;;
60919;SDS011;59039;52.108;19.942;2022-07-10T06:04:09;8.00;;;3.60;;
60919;SDS011;59039;52.108;19.942;2022-07-10T06:06:34;5.90;;;3.10;;
60919;SDS011;59039;52.108;19.942;2022-07-10T06:09:08;5.50;;;3.30;;
60919;SDS011;59039;52.108;19.942;2022-07-10T06:11:57;6.60;;;3.00;;
60919;SDS011;59039;52.108;19.942;2022-07-10T06:14:51;12.60;;;2.90;;
60919;SDS011;59039;52.108;19.942;2022-07-10T06:17:37;9.80;;;3.30;;
60919;SDS011;59039;52.108;19.942;2022-07-10T06:25:35;7.80;;;3.50;;
60919;SDS011;59039;52.108;19.942;2022-07-10T06:28:03;5.10;;;3.40;;
60919;SDS011;59039;52.108;19.942;2022-07-10T06:30:49;6.70;;;3.90;;
60919;SDS011;59039;52.108;19.942;2022-07-10T06:33:34;6.30;;;3.00;;
60919;SDS011;59039;52.108;19.942;2022-07-10T06:38:56;7.50;;;2.80;;
60919;SDS011;59039;52.108;19.942;2022-07-10T06:41:21;5.60;;;2.90;;
60919;SDS011;59039;52.108;19.942;2022-07-10T06:43:46;8.40;;;3.40;;
60919;SDS011;59039;52.108;19.942;2022-07-10T06:46:21;5.50;;;3.10;;
60919;SDS011;59039;52.108;19.942;2022-07-10T06:48:53;6.30;;;2.90;;
60919;SDS011;59039;52.108;19.942;2022-07-10T06:51:19;5.20;;;3.10;;
60919;SDS011;59039;52.108;19.942;2022-07-10T06:53:53;7.90;;;2.90;;
60919;SDS011;59039;52.108;19.942;2022-07-10T06:56:25;5.00;;;3.00;;
60919;SDS011;59039;52.108;19.942;2022-07-10T06:58:58;5.20;;;2.90;;
60919;SDS011;59039;52.108;19.942;2022-07-10T07:01:27;7.20;;;3.30;;
60919;SDS011;59039;52.108;19.942;2022-07-10T07:04:04;6.10;;;2.80;;
60919;SDS011;59039;52.108;19.942;2022-07-10T07:06:34;6.50;;;2.50;;
60919;SDS011;59039;52.108;19.942;2022-07-10T07:09:00;6.10;;;2.80;;
60919;SDS011;59039;52.108;19.942;2022-07-10T07:11:25;8.00;;;2.40;;
60919;SDS011;59039;52.108;19.942;2022-07-10T07:14:11;4.30;;;2.60;;
60919;SDS011;59039;52.108;19.942;2022-07-10T07:16:37;5.20;;;2.70;;
60919;SDS011;59039;52.108;19.942;2022-07-10T07:19:03;5.10;;;2.50;;
60919;SDS011;59039;52.108;19.942;2022-07-10T07:21:28;6.30;;;2.60;;
60919;SDS011;59039;52.108;19.942;2022-07-10T07:23:56;5.50;;;2.60;;
60919;SDS011;59039;52.108;19.942;2022-07-10T07:26:21;6.00;;;2.70;;
60919;SDS011;59039;52.108;19.942;2022-07-10T07:28:46;6.70;;;2.80;;
60919;SDS011;59039;52.108;19.942;2022-07-10T07:31:12;4.20;;;2.40;;
60919;SDS011;59039;52.108;19.942;2022-07-10T07:33:37;3.70;;;2.20;;
60919;SDS011;59039;52.108;19.942;2022-07-10T07:36:05;5.70;;;2.10;;
60919;SDS011;59039;52.108;19.942;2022-07-10T07:38:34;4.60;;;1.90;;
60919;SDS011;59039;52.108;19.942;2022-07-10T07:40:59;4.60;;;2.00;;
60919;SDS011;59039;52.108;19.942;2022-07-10T07:43:27;6.00;;;2.20;;
60919;SDS011;59039;52.108;19.942;2022-07-10T07:45:52;5.10;;;2.00;;
60919;SDS011;59039;52.108;19.942;2022-07-10T07:48:20;5.50;;;2.10;;
60919;SDS011;59039;52.108;19.942;2022-07-10T07:50:46;3.70;;;2.10;;
60919;SDS011;59039;52.108;19.942;2022-07-10T07:53:11;2.90;;;1.40;;
60919;SDS011;59039;52.108;19.942;2022-07-10T07:55:39;2.80;;;1.40;;
60919;SDS011;59039;52.108;19.942;2022-07-10T08:00:43;3.30;;;1.40;;
60919;SDS011;59039;52.108;19.942;2022-07-10T08:03:08;3.10;;;1.60;;
60919;SDS011;59039;52.108;19.942;2022-07-10T08:08:09;2.10;;;1.30;;
60919;SDS011;59039;52.108;19.942;2022-07-10T08:10:37;7.00;;;1.80;;
60919;SDS011;59039;52.108;19.942;2022-07-10T08:13:03;4.00;;;1.70;;
60919;SDS011;59039;52.108;19.942;2022-07-10T08:15:28;4.30;;;1.80;;
60919;SDS011;59039;52.108;19.942;2022-07-10T08:17:55;5.00;;;1.80;;
60919;SDS011;59039;52.108;19.942;2022-07-10T08:20:23;3.70;;;1.70;;
60919;SDS011;59039;52.108;19.942;2022-07-10T08:22:50;3.20;;;1.60;;
60919;SDS011;59039;52.108;19.942;2022-07-10T08:25:35;2.80;;;1.70;;
60919;SDS011;59039;52.108;19.942;2022-07-10T08:28:01;2.80;;;1.80;;
60919;SDS011;59039;52.108;19.942;2022-07-10T08:30:29;4.00;;;2.00;;
60919;SDS011;59039;52.108;19.942;2022-07-10T08:32:55;3.30;;;1.40;;
60919;SDS011;59039;52.108;19.942;2022-07-10T08:35:20;5.40;;;1.90;;
60919;SDS011;59039;52.108;19.942;2022-07-10T08:37:48;3.80;;;1.80;;
60919;SDS011;59039;52.108;19.942;2022-07-10T08:40:17;5.60;;;2.10;;
60919;SDS011;59039;52.108;19.942;2022-07-10T08:42:42;5.80;;;2.20;;
60919;SDS011;59039;52.108;19.942;2022-07-10T08:45:16;5.10;;;1.90;;
60919;SDS011;59039;52.108;19.942;2022-07-10T08:47:42;5.60;;;2.00;;
60919;SDS011;59039;52.108;19.942;2022-07-10T08:50:17;4.70;;;1.80;;
60919;SDS011;59039;52.108;19.942;2022-07-10T08:52:52;3.60;;;1.60;;
60919;SDS011;59039;52.108;19.942;2022-07-10T08:55:41;2.90;;;1.70;;
60919;SDS011;59039;52.108;19.942;2022-07-10T08:58:07;5.50;;;1.90;;
60919;SDS011;59039;52.108;19.942;2022-07-10T09:00:40;5.00;;;1.90;;
60919;SDS011;59039;52.108;19.942;2022-07-10T09:03:08;2.80;;;1.70;;
60919;SDS011;59039;52.108;19.942;2022-07-10T09:05:33;7.20;;;1.90;;
60919;SDS011;59039;52.108;19.942;2022-07-10T09:07:58;4.50;;;2.10;;
60919;SDS011;59039;52.108;19.942;2022-07-10T09:10:24;4.00;;;1.80;;
60919;SDS011;59039;52.108;19.942;2022-07-10T09:15:21;5.10;;;2.00;;
60919;SDS011;59039;52.108;19.942;2022-07-10T09:20:30;3.90;;;1.90;;
60919;SDS011;59039;52.108;19.942;2022-07-10T09:22:56;3.70;;;1.70;;
60919;SDS011;59039;52.108;19.942;2022-07-10T09:25:39;6.10;;;2.10;;
60919;SDS011;59039;52.108;19.942;2022-07-10T09:28:13;4.00;;;1.80;;
60919;SDS011;59039;52.108;19.942;2022-07-10T09:30:44;4.10;;;1.80;;
60919;SDS011;59039;52.108;19.942;2022-07-10T09:33:20;3.90;;;1.60;;
60919;SDS011;59039;52.108;19.942;2022-07-10T09:38:20;3.60;;;1.50;;
60919;SDS011;59039;52.108;19.942;2022-07-10T09:40:46;4.60;;;1.60;;
60919;SDS011;59039;52.108;19.942;2022-07-10T09:43:11;2.50;;;1.60;;
60919;SDS011;59039;52.108;19.942;2022-07-10T09:45:36;6.60;;;2.40;;
60919;SDS011;59039;52.108;19.942;2022-07-10T09:48:01;5.40;;;1.90;;
60919;SDS011;59039;52.108;19.942;2022-07-10T09:50:31;3.10;;;1.70;;
60919;SDS011;59039;52.108;19.942;2022-07-10T09:52:58;4.60;;;1.70;;
60919;SDS011;59039;52.108;19.942;2022-07-10T09:55:34;4.10;;;1.80;;
60919;SDS011;59039;52.108;19.942;2022-07-10T09:58:03;6.00;;;2.50;;
60919;SDS011;59039;52.108;19.942;2022-07-10T10:00:35;6.70;;;2.20;;
60919;SDS011;59039;52.108;19.942;2022-07-10T10:03:06;4.40;;;2.00;;
60919;SDS011;59039;52.108;19.942;2022-07-10T10:05:42;6.40;;;2.00;;
60919;SDS011;59039;52.108;19.942;2022-07-10T10:08:13;7.10;;;2.30;;
60919;SDS011;59039;52.108;19.942;2022-07-10T10:11:01;4.60;;;1.90;;
60919;SDS011;59039;52.108;19.942;2022-07-10T10:13:28;7.10;;;1.90;;
60919;SDS011;59039;52.108;19.942;2022-07-10T10:15:54;6.20;;;2.10;;
60919;SDS011;59039;52.108;19.942;2022-07-10T10:18:23;6.20;;;2.10;;
60919;SDS011;59039;52.108;19.942;2022-07-10T10:20:50;6.30;;;2.00;;
60919;SDS011;59039;52.108;19.942;2022-07-10T10:23:18;10.20;;;2.10;;
60919;SDS011;59039;52.108;19.942;2022-07-10T10:25:45;7.10;;;2.30;;
60919;SDS011;59039;52.108;19.942;2022-07-10T10:28:12;3.30;;;1.60;;
60919;SDS011;59039;52.108;19.942;2022-07-10T10:30:39;4.90;;;1.80;;
60919;SDS011;59039;52.108;19.942;2022-07-10T10:35:58;7.00;;;1.70;;
60919;SDS011;59039;52.108;19.942;2022-07-10T10:38:24;4.40;;;1.70;;
60919;SDS011;59039;52.108;19.942;2022-07-10T10:40:49;3.50;;;1.90;;
60919;SDS011;59039;52.108;19.942;2022-07-10T10:43:18;2.10;;;1.40;;
60919;SDS011;59039;52.108;19.942;2022-07-10T10:45:47;3.20;;;1.60;;
60919;SDS011;59039;52.108;19.942;2022-07-10T10:48:14;3.10;;;1.60;;
60919;SDS011;59039;52.108;19.942;2022-07-10T10:50:47;5.80;;;1.70;;
60919;SDS011;59039;52.108;19.942;2022-07-10T10:53:15;4.40;;;1.80;;
60919;SDS011;59039;52.108;19.942;2022-07-10T10:58:42;7.10;;;2.20;;
60919;SDS011;59039;52.108;19.942;2022-07-10T11:04:12;2.80;;;1.80;;
60919;SDS011;59039;52.108;19.942;2022-07-10T11:09:20;4.60;;;2.40;;
60919;SDS011;59039;52.108;19.942;2022-07-10T11:14:25;7.10;;;2.20;;
60919;SDS011;59039;52.108;19.942;2022-07-10T11:16:54;5.30;;;1.80;;
60919;SDS011;59039;52.108;19.942;2022-07-10T11:19:21;5.00;;;1.90;;
60919;SDS011;59039;52.108;19.942;2022-07-10T11:21:47;3.90;;;1.80;;
60919;SDS011;59039;52.108;19.942;2022-07-10T11:27:24;6.80;;;2.10;;
60919;SDS011;59039;52.108;19.942;2022-07-10T11:30:11;5.10;;;2.10;;
60919;SDS011;59039;52.108;19.942;2022-07-10T11:32:39;5.00;;;1.90;;
60919;SDS011;59039;52.108;19.942;2022-07-10T11:35:11;4.70;;;2.10;;
60919;SDS011;59039;52.108;19.942;2022-07-10T11:40:13;2.00;;;1.60;;
60919;SDS011;59039;52.108;19.942;2022-07-10T11:42:52;3.70;;;1.80;;
60919;SDS011;59039;52.108;19.942;2022-07-10T11:47:47;4.00;;;1.70;;
60919;SDS011;59039;52.108;19.942;2022-07-10T11:50:12;5.60;;;1.90;;
60919;SDS011;59039;52.108;19.942;2022-07-10T11:52:40;4.00;;;1.80;;
60919;SDS011;59039;52.108;19.942;2022-07-10T11:55:14;3.40;;;2.00;;
60919;SDS011;59039;52.108;19.942;2022-07-10T11:57:43;3.60;;;1.80;;
60919;SDS011;59039;52.108;19.942;2022-07-10T12:00:30;3.60;;;1.80;;
60919;SDS011;59039;52.108;19.942;2022-07-10T12:02:55;3.80;;;1.90;;
60919;SDS011;59039;52.108;19.942;2022-07-10T12:08:08;4.60;;;1.80;;
60919;SDS011;59039;52.108;19.942;2022-07-10T12:10:34;2.40;;;1.20;;
60919;SDS011;59039;52.108;19.942;2022-07-10T12:13:28;2.40;;;1.50;;
60919;SDS011;59039;52.108;19.942;2022-07-10T12:15:56;6.00;;;1.90;;
60919;SDS011;59039;52.108;19.942;2022-07-10T12:18:30;4.00;;;1.70;;
60919;SDS011;59039;52.108;19.942;2022-07-10T12:21:17;2.60;;;1.90;;
60919;SDS011;59039;52.108;19.942;2022-07-10T12:23:43;3.50;;;1.90;;
60919;SDS011;59039;52.108;19.942;2022-07-10T12:26:12;5.40;;;1.80;;
60919;SDS011;59039;52.108;19.942;2022-07-10T12:28:54;4.60;;;1.80;;
60919;SDS011;59039;52.108;19.942;2022-07-10T12:31:24;3.10;;;1.70;;
60919;SDS011;59039;52.108;19.942;2022-07-10T12:33:57;9.00;;;1.90;;
60919;SDS011;59039;52.108;19.942;2022-07-10T12:36:40;4.50;;;2.70;;
60919;SDS011;59039;52.108;19.942;2022-07-10T12:39:06;2.80;;;1.60;;
60919;SDS011;59039;52.108;19.942;2022-07-10T12:41:35;2.90;;;1.50;;
60919;SDS011;59039;52.108;19.942;2022-07-10T12:44:39;2.10;;;1.40;;
60919;SDS011;59039;52.108;19.942;2022-07-10T12:47:07;5.70;;;1.70;;
60919;SDS011;59039;52.108;19.942;2022-07-10T12:52:23;4.70;;;2.10;;
60919;SDS011;59039;52.108;19.942;2022-07-10T12:55:05;2.80;;;1.80;;
60919;SDS011;59039;52.108;19.942;2022-07-10T12:57:46;2.00;;;1.50;;
60919;SDS011;59039;52.108;19.942;2022-07-10T13:00:15;4.30;;;1.80;;
60919;SDS011;59039;52.108;19.942;2022-07-10T13:03:07;4.00;;;1.60;;
60919;SDS011;59039;52.108;19.942;2022-07-10T13:08:21;4.20;;;1.70;;
60919;SDS011;59039;52.108;19.942;2022-07-10T13:11:05;3.50;;;1.70;;
60919;SDS011;59039;52.108;19.942;2022-07-10T13:13:30;4.00;;;1.80;;
60919;SDS011;59039;52.108;19.942;2022-07-10T13:15:55;2.70;;;1.40;;
60919;SDS011;59039;52.108;19.942;2022-07-10T13:18:29;3.50;;;1.70;;
60919;SDS011;59039;52.108;19.942;2022-07-10T13:21:00;3.10;;;1.70;;
60919;SDS011;59039;52.108;19.942;2022-07-10T13:23:25;4.20;;;1.70;;
60919;SDS011;59039;52.108;19.942;2022-07-10T13:25:53;5.10;;;1.60;;
60919;SDS011;59039;52.108;19.942;2022-07-10T13:28:22;3.20;;;1.90;;
60919;SDS011;59039;52.108;19.942;2022-07-10T13:30:48;4.50;;;1.60;;
60919;SDS011;59039;52.108;19.942;2022-07-10T13:33:23;3.50;;;1.70;;
60919;SDS011;59039;52.108;19.942;2022-07-10T13:38:37;3.30;;;1.70;;
60919;SDS011;59039;52.108;19.942;2022-07-10T13:41:02;4.10;;;1.80;;
60919;SDS011;59039;52.108;19.942;2022-07-10T13:43:37;3.00;;;1.70;;
60919;SDS011;59039;52.108;19.942;2022-07-10T13:46:05;3.30;;;1.70;;
60919;SDS011;59039;52.108;19.942;2022-07-10T13:48:38;3.60;;;1.90;;
60919;SDS011;59039;52.108;19.942;2022-07-10T13:51:06;4.50;;;1.60;;
60919;SDS011;59039;52.108;19.942;2022-07-10T13:53:34;3.00;;;1.70;;
60919;SDS011;59039;52.108;19.942;2022-07-10T13:56:09;3.40;;;1.70;;
60919;SDS011;59039;52.108;19.942;2022-07-10T13:58:35;4.00;;;1.50;;
60919;SDS011;59039;52.108;19.942;2022-07-10T14:01:05;1.80;;;1.10;;
60919;SDS011;59039;52.108;19.942;2022-07-10T14:03:31;1.70;;;1.40;;
60919;SDS011;59039;52.108;19.942;2022-07-10T14:05:57;2.30;;;1.40;;
60919;SDS011;59039;52.108;19.942;2022-07-10T14:08:22;2.00;;;1.30;;
60919;SDS011;59039;52.108;19.942;2022-07-10T14:10:48;3.80;;;1.40;;
60919;SDS011;59039;52.108;19.942;2022-07-10T14:13:14;2.50;;;1.20;;
60919;SDS011;59039;52.108;19.942;2022-07-10T14:15:40;2.50;;;1.40;;
60919;SDS011;59039;52.108;19.942;2022-07-10T14:18:05;2.20;;;1.40;;
60919;SDS011;59039;52.108;19.942;2022-07-10T14:20:31;4.60;;;1.50;;
60919;SDS011;59039;52.108;19.942;2022-07-10T14:22:59;1.10;;;1.10;;
60919;SDS011;59039;52.108;19.942;2022-07-10T14:25:33;2.00;;;1.10;;
60919;SDS011;59039;52.108;19.942;2022-07-10T14:27:58;1.20;;;1.10;;
60919;SDS011;59039;52.108;19.942;2022-07-10T14:30:28;5.10;;;1.50;;
60919;SDS011;59039;52.108;19.942;2022-07-10T14:32:54;2.80;;;1.60;;
60919;SDS011;59039;52.108;19.942;2022-07-10T14:35:28;2.80;;;1.20;;
60919;SDS011;59039;52.108;19.942;2022-07-10T14:37:53;2.70;;;1.40;;
60919;SDS011;59039;52.108;19.942;2022-07-10T14:40:19;6.40;;;2.00;;
60919;SDS011;59039;52.108;19.942;2022-07-10T14:43:04;4.00;;;1.90;;
60919;SDS011;59039;52.108;19.942;2022-07-10T14:45:29;3.90;;;1.80;;
60919;SDS011;59039;52.108;19.942;2022-07-10T14:47:55;3.50;;;1.50;;
60919;SDS011;59039;52.108;19.942;2022-07-10T14:50:23;4.00;;;1.70;;
60919;SDS011;59039;52.108;19.942;2022-07-10T14:52:49;2.70;;;1.80;;
60919;SDS011;59039;52.108;19.942;2022-07-10T14:55:23;3.70;;;1.40;;
60919;SDS011;59039;52.108;19.942;2022-07-10T14:57:49;4.40;;;1.50;;
60919;SDS011;59039;52.108;19.942;2022-07-10T15:00:14;3.10;;;1.40;;
60919;SDS011;59039;52.108;19.942;2022-07-10T15:05:20;1.50;;;1.40;;
60919;SDS011;59039;52.108;19.942;2022-07-10T15:07:55;2.10;;;1.30;;
60919;SDS011;59039;52.108;19.942;2022-07-10T15:10:20;2.00;;;1.40;;
60919;SDS011;59039;52.108;19.942;2022-07-10T15:12:45;2.60;;;1.80;;
60919;SDS011;59039;52.108;19.942;2022-07-10T15:15:18;2.50;;;1.40;;
60919;SDS011;59039;52.108;19.942;2022-07-10T15:17:43;2.20;;;1.40;;
60919;SDS011;59039;52.108;19.942;2022-07-10T15:20:09;5.50;;;1.70;;
60919;SDS011;59039;52.108;19.942;2022-07-10T15:22:35;3.30;;;1.60;;
60919;SDS011;59039;52.108;19.942;2022-07-10T15:25:00;2.50;;;1.60;;
60919;SDS011;59039;52.108;19.942;2022-07-10T15:27:28;2.20;;;1.70;;
60919;SDS011;59039;52.108;19.942;2022-07-10T15:29:56;3.10;;;1.60;;
60919;SDS011;59039;52.108;19.942;2022-07-10T15:32:21;4.00;;;2.10;;
60919;SDS011;59039;52.108;19.942;2022-07-10T15:34:47;5.20;;;1.60;;
60919;SDS011;59039;52.108;19.942;2022-07-10T15:37:15;3.10;;;1.40;;
60919;SDS011;59039;52.108;19.942;2022-07-10T15:39:41;3.40;;;1.70;;
60919;SDS011;59039;52.108;19.942;2022-07-10T15:42:10;2.10;;;1.60;;
60919;SDS011;59039;52.108;19.942;2022-07-10T15:44:36;3.60;;;1.50;;
60919;SDS011;59039;52.108;19.942;2022-07-10T15:47:01;3.40;;;1.60;;
60919;SDS011;59039;52.108;19.942;2022-07-10T15:49:27;2.70;;;1.90;;
60919;SDS011;59039;52.108;19.942;2022-07-10T15:51:52;5.60;;;2.20;;
60919;SDS011;59039;52.108;19.942;2022-07-10T15:54:20;2.80;;;1.60;;
60919;SDS011;59039;52.108;19.942;2022-07-10T15:56:46;3.10;;;1.70;;
60919;SDS011;59039;52.108;19.942;2022-07-10T15:59:11;3.00;;;1.70;;
60919;SDS011;59039;52.108;19.942;2022-07-10T16:01:37;1.90;;;1.60;;
60919;SDS011;59039;52.108;19.942;2022-07-10T16:04:02;1.80;;;1.30;;
60919;SDS011;59039;52.108;19.942;2022-07-10T16:06:27;3.00;;;1.50;;
60919;SDS011;59039;52.108;19.942;2022-07-10T16:08:53;4.80;;;1.50;;
60919;SDS011;59039;52.108;19.942;2022-07-10T16:11:18;2.80;;;1.20;;
60919;SDS011;59039;52.108;19.942;2022-07-10T16:13:43;2.60;;;1.30;;
60919;SDS011;59039;52.108;19.942;2022-07-10T16:16:08;2.70;;;1.20;;
60919;SDS011;59039;52.108;19.942;2022-07-10T16:18:33;1.20;;;1.10;;
60919;SDS011;59039;52.108;19.942;2022-07-10T16:20:59;1.70;;;1.60;;
60919;SDS011;59039;52.108;19.942;2022-07-10T16:23:24;2.90;;;1.70;;
60919;SDS011;59039;52.108;19.942;2022-07-10T16:25:49;4.70;;;1.70;;
60919;SDS011;59039;52.108;19.942;2022-07-10T16:28:14;4.70;;;1.80;;
60919;SDS011;59039;52.108;19.942;2022-07-10T16:30:41;2.60;;;1.70;;
60919;SDS011;59039;52.108;19.942;2022-07-10T16:33:06;2.20;;;1.50;;
60919;SDS011;59039;52.108;19.942;2022-07-10T16:35:31;3.40;;;2.70;;
60919;SDS011;59039;52.108;19.942;2022-07-10T16:37:56;2.20;;;1.50;;
60919;SDS011;59039;52.108;19.942;2022-07-10T16:40:22;1.90;;;1.30;;
60919;SDS011;59039;52.108;19.942;2022-07-10T16:42:47;2.40;;;2.00;;
60919;SDS011;59039;52.108;19.942;2022-07-10T16:45:12;3.40;;;1.90;;
60919;SDS011;59039;52.108;19.942;2022-07-10T16:47:38;2.40;;;1.30;;
60919;SDS011;59039;52.108;19.942;2022-07-10T16:50:03;2.30;;;1.50;;
60919;SDS011;59039;52.108;19.942;2022-07-10T16:52:29;4.30;;;1.90;;
60919;SDS011;59039;52.108;19.942;2022-07-10T16:54:54;2.60;;;1.80;;
60919;SDS011;59039;52.108;19.942;2022-07-10T16:57:20;3.10;;;2.00;;
60919;SDS011;59039;52.108;19.942;2022-07-10T16:59:45;6.40;;;2.30;;
60919;SDS011;59039;52.108;19.942;2022-07-10T17:02:10;3.20;;;2.00;;
60919;SDS011;59039;52.108;19.942;2022-07-10T17:04:39;3.10;;;2.20;;
60919;SDS011;59039;52.108;19.942;2022-07-10T17:07:05;4.00;;;2.00;;
60919;SDS011;59039;52.108;19.942;2022-07-10T17:09:34;3.00;;;1.70;;
60919;SDS011;59039;52.108;19.942;2022-07-10T17:12:04;2.10;;;1.80;;